createdAt,value
2018-02-11T00:00:26.335Z,29.90
2018-02-11T00:02:53.817Z,29.95
2018-02-11T00:05:21.307Z,27.70
2018-02-11T00:07:48.772Z,30.17
2018-02-11T00:10:16.236Z,29.45
2018-02-11T00:12:43.764Z,29.42
2018-02-11T00:15:11.231Z,29.15
2018-02-11T00:17:38.742Z,29.12
2018-02-11T00:20:06.216Z,30.20
2018-02-11T00:22:33.689Z,29.63
2018-02-11T00:25:01.169Z,30.42
2018-02-11T00:27:28.641Z,31.55
2018-02-11T00:29:56.111Z,31.42
2018-02-11T00:32:23.598Z,28.20
2018-02-11T00:34:51.054Z,30.17
2018-02-11T00:37:24.004Z,28.95
2018-02-11T00:39:51.482Z,31.05
2018-02-11T00:42:18.932Z,29.83
2018-02-11T00:44:46.476Z,29.17
2018-02-11T00:47:13.940Z,27.90
2018-02-11T00:49:41.443Z,30.17
2018-02-11T00:52:09.111Z,29.45
2018-02-11T00:54:36.634Z,29.83
2018-02-11T00:57:04.114Z,28.83
2018-02-11T00:59:31.582Z,30.90
2018-02-11T01:01:59.105Z,29.48
2018-02-11T01:04:26.618Z,31.23
2018-02-11T01:06:54.095Z,27.65
2018-02-11T01:09:21.612Z,28.25
2018-02-11T01:11:50.092Z,30.05
2018-02-11T01:14:17.579Z,28.85
2018-02-11T01:16:45.065Z,28.30
2018-02-11T01:19:12.519Z,29.00
2018-02-11T01:21:40.104Z,26.85
2018-02-11T01:24:07.581Z,27.75
2018-02-11T01:26:35.081Z,27.77
2018-02-11T01:29:02.597Z,27.55
2018-02-11T01:31:30.092Z,28.42
2018-02-11T01:33:57.595Z,28.75
2018-02-11T01:36:26.185Z,28.98
2018-02-11T01:38:53.678Z,27.27
2018-02-11T01:41:21.154Z,29.10
2018-02-11T01:43:48.654Z,29.27
2018-02-11T01:46:16.156Z,27.10
2018-02-11T01:48:43.663Z,27.75
2018-02-11T01:51:11.122Z,27.95
2018-02-11T01:53:38.602Z,28.55
2018-02-11T01:56:06.096Z,25.05
2018-02-11T01:58:33.562Z,27.62
2018-02-11T02:01:01.070Z,27.23
2018-02-11T02:03:28.575Z,28.58
2018-02-11T02:05:56.038Z,28.83
2018-02-11T02:08:23.520Z,27.70
2018-02-11T02:10:51.036Z,29.33
2018-02-11T02:13:18.508Z,28.35
2018-02-11T02:15:46.631Z,31.98
2018-02-11T02:18:14.146Z,29.83
2018-02-11T02:20:41.643Z,28.05
2018-02-11T02:23:09.098Z,27.40
2018-02-11T02:25:36.563Z,29.95
2018-02-11T02:28:04.027Z,27.87
2018-02-11T02:30:31.475Z,30.62
2018-02-11T02:32:58.967Z,26.55
2018-02-11T02:35:26.521Z,27.55
2018-02-11T02:37:54.012Z,25.92
2018-02-11T02:40:21.496Z,29.00
2018-02-11T02:42:49.014Z,27.65
2018-02-11T02:45:16.571Z,29.33
2018-02-11T02:47:44.043Z,28.67
2018-02-11T02:50:11.523Z,29.95
2018-02-11T02:52:39.004Z,28.40
2018-02-11T02:55:06.487Z,27.73
2018-02-11T02:57:33.973Z,29.92
2018-02-11T03:00:01.446Z,29.27
2018-02-11T03:02:28.919Z,26.75
2018-02-11T03:04:56.389Z,27.80
2018-02-11T03:07:23.864Z,27.87
2018-02-11T03:09:51.345Z,31.45
2018-02-11T03:12:18.806Z,29.45
2018-02-11T03:14:46.328Z,30.27
2018-02-11T03:17:13.818Z,27.98
2018-02-11T03:19:41.304Z,28.92
2018-02-11T03:22:08.764Z,31.05
2018-02-11T03:24:36.505Z,29.77
2018-02-11T03:27:03.958Z,29.85
2018-02-11T03:29:31.414Z,28.62
2018-02-11T03:31:58.899Z,29.20
2018-02-11T03:34:26.358Z,28.75
2018-02-11T03:36:53.820Z,29.00
2018-02-11T03:39:21.298Z,28.40
2018-02-11T03:41:48.769Z,29.42
2018-02-11T03:44:16.240Z,27.15
2018-02-11T03:46:43.694Z,28.35
2018-02-11T03:49:11.159Z,28.60
2018-02-11T03:51:38.645Z,30.30
2018-02-11T03:54:06.128Z,30.60
2018-02-11T03:56:33.624Z,29.02
2018-02-11T03:59:01.105Z,28.25
2018-02-11T04:01:28.550Z,31.55
2018-02-11T04:03:56.121Z,27.95
2018-02-11T04:06:23.595Z,29.63
2018-02-11T04:08:51.055Z,29.12
2018-02-11T04:11:18.514Z,29.65
2018-02-11T04:13:45.976Z,29.58
2018-02-11T04:16:13.463Z,28.50
2018-02-11T04:18:40.982Z,28.27
2018-02-11T04:21:08.440Z,29.10
2018-02-11T04:23:35.910Z,28.05
2018-02-11T04:26:03.400Z,27.40
2018-02-11T04:28:30.921Z,29.10
2018-02-11T04:30:58.375Z,29.67
2018-02-11T04:33:25.856Z,28.52
2018-02-11T04:35:53.311Z,28.35
2018-02-11T04:38:20.802Z,28.40
2018-02-11T04:40:48.260Z,29.52
2018-02-11T04:43:15.767Z,31.05
2018-02-11T04:45:43.218Z,28.67
2018-02-11T04:48:10.703Z,27.70
2018-02-11T04:50:38.175Z,28.10
2018-02-11T04:53:05.627Z,29.52
2018-02-11T04:55:33.095Z,30.55
2018-02-11T04:58:00.569Z,29.92
2018-02-11T05:00:28.023Z,29.80
2018-02-11T05:02:55.484Z,31.27
2018-02-11T05:05:22.948Z,29.80
2018-02-11T05:07:50.423Z,26.87
2018-02-11T05:10:17.893Z,26.25
2018-02-11T05:12:45.372Z,26.52
2018-02-11T05:15:12.847Z,27.40
2018-02-11T05:17:40.308Z,28.38
2018-02-11T05:20:07.830Z,25.70
2018-02-11T05:22:35.297Z,27.50
2018-02-11T05:25:02.761Z,27.13
2018-02-11T05:27:30.233Z,27.00
2018-02-11T05:29:57.715Z,25.05
2018-02-11T05:32:25.175Z,25.02
2018-02-11T05:34:52.659Z,25.85
2018-02-11T05:37:20.119Z,29.58
2018-02-11T05:39:47.606Z,27.95
2018-02-11T05:42:15.088Z,26.58
2018-02-11T05:44:42.548Z,29.50
2018-02-11T05:47:10.038Z,30.08
2018-02-11T05:49:37.486Z,27.17
2018-02-11T05:52:04.950Z,26.75
2018-02-11T05:54:32.484Z,26.98
2018-02-11T05:56:59.949Z,24.92
2018-02-11T05:59:27.451Z,26.95
2018-02-11T06:01:54.910Z,27.10
2018-02-11T06:04:22.381Z,27.02
2018-02-11T06:06:49.869Z,27.65
2018-02-11T06:09:17.522Z,29.75
2018-02-11T06:11:45.015Z,27.25
2018-02-11T06:14:12.507Z,26.80
2018-02-11T06:16:39.967Z,28.73
2018-02-11T06:19:07.418Z,29.10
2018-02-11T06:21:34.916Z,32.65
2018-02-11T06:24:02.405Z,32.60
2018-02-11T06:26:29.874Z,33.03
2018-02-11T06:28:57.356Z,32.38
2018-02-11T06:31:24.811Z,32.97
2018-02-11T06:33:52.359Z,35.25
2018-02-11T06:36:19.913Z,37.45
2018-02-11T06:38:49.550Z,35.90
2018-02-11T06:41:17.089Z,33.22
2018-02-11T06:43:44.536Z,31.62
2018-02-11T06:46:11.986Z,29.60
2018-02-11T06:48:40.761Z,30.42
2018-02-11T06:51:08.236Z,41.10
2018-02-11T06:53:35.711Z,43.00
2018-02-11T06:56:03.652Z,34.90
2018-02-11T06:58:31.145Z,33.40
2018-02-11T07:00:58.591Z,33.15
2018-02-11T07:03:26.122Z,32.35
2018-02-11T07:05:53.591Z,32.85
2018-02-11T07:08:21.085Z,34.28
2018-02-11T07:10:48.556Z,34.15
2018-02-11T07:13:16.101Z,34.63
2018-02-11T07:15:44.378Z,34.55
2018-02-11T07:18:12.936Z,46.47
2018-02-11T07:20:40.620Z,32.05
2018-02-11T07:23:08.123Z,42.90
2018-02-11T07:25:35.595Z,71.40
2018-02-11T07:28:03.072Z,51.22
2018-02-11T07:30:30.594Z,35.33
2018-02-11T07:33:01.974Z,33.08
2018-02-11T07:35:29.508Z,33.67
2018-02-11T07:37:56.988Z,31.80
2018-02-11T07:40:24.570Z,33.72
2018-02-11T07:42:52.098Z,35.53
2018-02-11T07:45:19.595Z,34.28
2018-02-11T07:47:47.097Z,35.55
2018-02-11T07:50:14.554Z,35.17
2018-02-11T07:52:44.613Z,34.50
2018-02-11T07:55:12.100Z,34.30
2018-02-11T07:57:39.573Z,33.63
2018-02-11T08:00:07.087Z,34.03
2018-02-11T08:02:34.595Z,32.07
2018-02-11T08:05:02.064Z,32.73
2018-02-11T08:07:29.532Z,34.60
2018-02-11T08:09:57.010Z,34.43
2018-02-11T08:12:27.356Z,33.47
2018-02-11T08:14:54.840Z,33.47
2018-02-11T08:17:22.304Z,35.40
2018-02-11T08:19:49.785Z,35.23
2018-02-11T08:22:17.243Z,33.57
2018-02-11T08:24:45.748Z,34.60
2018-02-11T08:27:13.301Z,32.27
2018-02-11T08:29:40.785Z,31.67
2018-02-11T08:32:08.254Z,30.03
2018-02-11T08:34:35.755Z,32.30
2018-02-11T08:37:03.224Z,31.10
2018-02-11T08:39:30.707Z,32.73
2018-02-11T08:41:58.171Z,31.47
2018-02-11T08:44:25.639Z,30.60
2018-02-11T08:46:53.123Z,30.57
2018-02-11T08:49:20.579Z,31.17
2018-02-11T08:51:48.025Z,31.57
2018-02-11T08:54:15.885Z,32.27
2018-02-11T08:56:43.451Z,31.90
2018-02-11T08:59:10.937Z,34.27
2018-02-11T09:01:38.483Z,33.70
2018-02-11T09:04:05.949Z,30.90
2018-02-11T09:06:33.434Z,31.80
2018-02-11T09:09:00.959Z,30.20
2018-02-11T09:11:28.418Z,32.90
2018-02-11T09:13:55.933Z,32.20
2018-02-11T09:16:23.396Z,32.83
2018-02-11T09:18:50.865Z,31.77
2018-02-11T09:21:18.426Z,31.77
2018-02-11T09:23:45.891Z,33.63
2018-02-11T09:26:13.404Z,31.87
2018-02-11T09:28:41.708Z,34.90
2018-02-11T09:31:09.221Z,34.20
2018-02-11T09:33:36.786Z,33.00
2018-02-11T09:36:04.287Z,34.17
2018-02-11T09:38:31.752Z,34.57
2018-02-11T09:40:59.258Z,36.53
2018-02-11T09:43:26.812Z,36.00
2018-02-11T09:45:54.269Z,36.80
2018-02-11T09:48:21.826Z,32.57
2018-02-11T09:50:51.343Z,34.30
2018-02-11T09:53:19.359Z,35.03
2018-02-11T09:55:46.883Z,32.63
2018-02-11T09:58:14.344Z,35.37
2018-02-11T10:00:46.479Z,34.37
2018-02-11T10:03:14.831Z,36.97
2018-02-11T10:05:42.294Z,36.70
2018-02-11T10:08:09.795Z,37.83
2018-02-11T10:10:37.235Z,37.20
2018-02-11T10:13:04.682Z,35.37
2018-02-11T10:15:32.159Z,33.40
2018-02-11T10:17:59.606Z,37.03
2018-02-11T10:20:27.105Z,37.17
2018-02-11T10:22:54.630Z,36.90
2018-02-11T10:25:22.076Z,35.80
2018-02-11T10:27:49.524Z,34.47
2018-02-11T10:30:17.014Z,36.40
2018-02-11T10:32:44.476Z,36.57
2018-02-11T10:35:11.960Z,36.57
2018-02-11T10:37:39.435Z,38.20
2018-02-11T10:40:06.901Z,39.50
2018-02-11T10:42:34.362Z,35.20
2018-02-11T10:45:01.822Z,34.60
2018-02-11T10:47:29.298Z,36.13
2018-02-11T10:49:56.759Z,36.00
2018-02-11T10:52:24.242Z,35.30
2018-02-11T10:54:51.709Z,36.10
2018-02-11T10:57:19.182Z,35.23
2018-02-11T10:59:46.664Z,33.33
2018-02-11T11:02:14.108Z,36.77
2018-02-11T11:04:41.593Z,34.33
2018-02-11T11:07:09.068Z,36.40
2018-02-11T11:09:36.550Z,35.93
2018-02-11T11:12:04.023Z,33.63
2018-02-11T11:14:31.501Z,34.03
2018-02-11T11:16:59.667Z,34.83
2018-02-11T11:19:27.168Z,35.47
2018-02-11T11:21:54.670Z,35.70
2018-02-11T11:24:22.184Z,34.83
2018-02-11T11:26:52.566Z,32.30
2018-02-11T11:29:20.022Z,35.33
2018-02-11T11:31:47.516Z,35.37
2018-02-11T11:34:14.982Z,37.33
2018-02-11T11:36:42.463Z,36.37
2018-02-11T11:39:10.022Z,32.70
2018-02-11T11:41:37.512Z,32.50
2018-02-11T11:44:04.988Z,33.10
2018-02-11T11:46:32.831Z,34.17
2018-02-11T11:49:00.416Z,35.37
2018-02-11T11:51:27.884Z,32.93
2018-02-11T11:53:55.335Z,32.17
2018-02-11T11:56:22.815Z,34.03
2018-02-11T11:58:50.321Z,31.40
2018-02-11T12:01:18.517Z,31.13
2018-02-11T12:03:45.986Z,32.03
2018-02-11T12:06:13.483Z,33.63
2018-02-11T12:08:40.988Z,32.30
2018-02-11T12:11:08.463Z,32.87
2018-02-11T12:13:35.927Z,31.90
2018-02-11T12:16:03.421Z,30.60
2018-02-11T12:18:30.896Z,33.87
2018-02-11T12:20:58.385Z,33.23
2018-02-11T12:23:25.870Z,31.80
2018-02-11T12:25:53.770Z,32.13
2018-02-11T12:28:21.270Z,31.60
2018-02-11T12:30:48.753Z,31.77
2018-02-11T12:33:17.009Z,31.53
2018-02-11T12:35:44.491Z,33.37
2018-02-11T12:38:11.970Z,33.87
2018-02-11T12:40:40.947Z,32.30
2018-02-11T12:43:08.418Z,33.03
2018-02-11T12:45:36.141Z,31.53
2018-02-11T12:48:03.644Z,33.00
2018-02-11T12:50:31.116Z,33.43
2018-02-11T12:52:58.615Z,34.00
2018-02-11T12:55:26.525Z,34.57
2018-02-11T12:57:54.060Z,35.50
2018-02-11T13:00:21.553Z,31.53
2018-02-11T13:02:49.050Z,33.40
2018-02-11T13:05:16.532Z,33.30
2018-02-11T13:07:44.019Z,33.83
2018-02-11T13:10:11.547Z,34.90
2018-02-11T13:12:40.179Z,32.30
2018-02-11T13:15:07.643Z,29.80
2018-02-11T13:17:35.183Z,33.23
2018-02-11T13:20:02.698Z,32.10
2018-02-11T13:22:30.184Z,32.80
2018-02-11T13:24:57.684Z,32.60
2018-02-11T13:27:25.208Z,33.03
2018-02-11T13:29:52.773Z,30.60
2018-02-11T13:32:20.282Z,32.03
2018-02-11T13:34:47.770Z,31.07
2018-02-11T13:37:15.250Z,31.27
2018-02-11T13:39:42.737Z,32.93
2018-02-11T13:42:10.237Z,32.80
2018-02-11T13:44:37.754Z,33.43
2018-02-11T13:47:05.233Z,31.07
2018-02-11T13:49:32.744Z,31.20
2018-02-11T13:52:00.224Z,31.73
2018-02-11T13:54:27.786Z,32.20
2018-02-11T13:56:55.231Z,31.90
2018-02-11T13:59:23.602Z,29.33
2018-02-11T14:01:51.073Z,30.07
2018-02-11T14:04:18.604Z,28.47
2018-02-11T14:06:46.115Z,30.00
2018-02-11T14:09:13.587Z,29.90
2018-02-11T14:11:41.072Z,30.00
2018-02-11T14:14:08.555Z,34.60
2018-02-11T14:16:37.132Z,35.60
2018-02-11T14:19:04.615Z,33.80
2018-02-11T14:21:32.089Z,58.87
2018-02-11T14:23:59.546Z,46.10
2018-02-11T14:26:27.026Z,31.73
2018-02-11T14:28:54.510Z,31.80
2018-02-11T14:31:21.981Z,30.43
2018-02-11T14:33:49.444Z,53.43
2018-02-11T14:36:16.967Z,47.23
2018-02-11T14:38:44.424Z,35.30
2018-02-11T14:41:11.913Z,52.47
2018-02-11T14:43:39.398Z,45.03
2018-02-11T14:46:06.926Z,45.30
2018-02-11T14:48:34.392Z,45.63
2018-02-11T14:51:01.863Z,31.17
2018-02-11T14:53:29.388Z,33.67
2018-02-11T14:55:56.864Z,31.50
2018-02-11T14:58:24.343Z,30.73
2018-02-11T15:00:51.835Z,101.57
2018-02-11T15:03:19.355Z,34.77
2018-02-11T15:05:46.839Z,30.63
2018-02-11T15:08:14.339Z,27.03
2018-02-11T15:10:41.884Z,29.60
2018-02-11T15:13:09.346Z,27.77
2018-02-11T15:15:36.815Z,26.93
2018-02-11T15:18:04.330Z,28.03
2018-02-11T15:20:31.790Z,27.57
2018-02-11T15:22:59.292Z,25.67
2018-02-11T15:25:26.763Z,25.50
2018-02-11T15:27:54.233Z,28.50
2018-02-11T15:30:21.725Z,27.20
2018-02-11T15:32:49.730Z,26.13
2018-02-11T15:35:17.236Z,27.33
2018-02-11T15:37:44.727Z,26.80
2018-02-11T15:40:12.253Z,28.27
2018-02-11T15:42:40.548Z,27.17
2018-02-11T15:45:08.022Z,29.10
2018-02-11T15:47:35.570Z,28.40
2018-02-11T15:50:03.029Z,26.63
2018-02-11T15:52:30.514Z,29.10
2018-02-11T15:54:58.003Z,27.30
2018-02-11T15:57:25.501Z,25.30
2018-02-11T15:59:53.951Z,25.80
2018-02-11T16:02:21.442Z,24.90
2018-02-11T16:04:48.895Z,26.00
2018-02-11T16:07:16.396Z,25.30
2018-02-11T16:09:44.381Z,26.77
2018-02-11T16:12:11.844Z,27.20
2018-02-11T16:14:39.343Z,24.80
2018-02-11T16:17:06.795Z,26.03
2018-02-11T16:19:34.282Z,25.80
2018-02-11T16:22:01.820Z,25.10
2018-02-11T16:24:29.311Z,27.00
2018-02-11T16:26:56.832Z,24.97
2018-02-11T16:29:24.329Z,29.37
2018-02-11T16:31:51.776Z,26.63
2018-02-11T16:34:19.272Z,26.00
2018-02-11T16:36:46.762Z,26.80
2018-02-11T16:39:14.260Z,26.07
2018-02-11T16:41:41.731Z,25.87
2018-02-11T16:44:09.221Z,26.07
2018-02-11T16:46:36.683Z,28.00
2018-02-11T16:49:04.215Z,25.20
2018-02-11T16:51:31.678Z,26.30
2018-02-11T16:53:59.133Z,27.07
2018-02-11T16:56:26.616Z,28.23
2018-02-11T16:58:54.109Z,25.70
2018-02-11T17:01:21.592Z,26.30
2018-02-11T17:03:49.067Z,25.43
2018-02-11T17:06:16.529Z,26.43
2018-02-11T17:08:44.018Z,27.37
2018-02-11T17:11:11.493Z,25.30
2018-02-11T17:13:38.942Z,25.40
2018-02-11T17:16:06.429Z,26.40
2018-02-11T17:18:33.883Z,24.30
2018-02-11T17:21:01.344Z,26.40
2018-02-11T17:23:28.917Z,26.30
2018-02-11T17:25:56.355Z,24.30
2018-02-11T17:28:23.841Z,24.67
2018-02-11T17:30:51.321Z,25.50
2018-02-11T17:33:18.808Z,25.30
2018-02-11T17:35:46.321Z,25.53
2018-02-11T17:38:13.788Z,23.43
2018-02-11T17:40:41.924Z,24.30
2018-02-11T17:43:09.435Z,26.40
2018-02-11T17:45:36.899Z,23.80
2018-02-11T17:48:04.394Z,25.23
2018-02-11T17:50:31.860Z,24.73
2018-02-11T17:52:59.318Z,25.87
2018-02-11T17:55:26.813Z,22.90
2018-02-11T17:57:54.277Z,24.00
2018-02-11T18:00:21.726Z,24.40
2018-02-11T18:02:50.075Z,22.83
2018-02-11T18:05:17.526Z,23.00
2018-02-11T18:07:45.080Z,23.53
2018-02-11T18:10:12.566Z,23.13
2018-02-11T18:12:40.158Z,24.80
2018-02-11T18:15:07.663Z,22.67
2018-02-11T18:17:35.134Z,24.90
2018-02-11T18:20:02.627Z,24.30
2018-02-11T18:22:30.088Z,23.37
2018-02-11T18:24:57.562Z,23.97
2018-02-11T18:27:25.050Z,25.00
2018-02-11T18:29:52.534Z,23.30
2018-02-11T18:32:20.006Z,25.80
2018-02-11T18:34:47.501Z,24.00
2018-02-11T18:37:14.976Z,25.77
2018-02-11T18:39:42.459Z,25.50
2018-02-11T18:42:09.932Z,25.23
2018-02-11T18:44:37.404Z,24.30
2018-02-11T18:47:04.855Z,24.87
2018-02-11T18:49:32.408Z,25.10
2018-02-11T18:51:59.883Z,24.87
2018-02-11T18:54:27.340Z,25.53
2018-02-11T18:56:54.819Z,24.03
2018-02-11T18:59:22.358Z,24.40
2018-02-11T19:01:49.839Z,24.80
2018-02-11T19:04:17.312Z,23.63
2018-02-11T19:06:44.814Z,24.83
2018-02-11T19:09:12.306Z,22.30
2018-02-11T19:11:39.780Z,21.70
2018-02-11T19:14:07.260Z,24.23
2018-02-11T19:16:34.739Z,24.60
2018-02-11T19:19:02.234Z,23.87
2018-02-11T19:21:29.686Z,23.00
2018-02-11T19:23:57.202Z,24.20
2018-02-11T19:26:24.775Z,23.73
2018-02-11T19:28:52.296Z,23.50
2018-02-11T19:31:19.769Z,24.27
2018-02-11T19:33:47.260Z,23.70
2018-02-11T19:36:14.753Z,24.63
2018-02-11T19:38:42.215Z,27.10
2018-02-11T19:41:09.746Z,28.40
2018-02-11T19:43:37.278Z,28.90
2018-02-11T19:46:04.935Z,28.93
2018-02-11T19:48:32.453Z,26.17
2018-02-11T19:50:59.971Z,26.00
2018-02-11T19:53:27.434Z,22.47
2018-02-11T19:55:54.908Z,25.57
2018-02-11T19:58:22.411Z,24.67
2018-02-11T20:00:49.934Z,28.37
2018-02-11T20:03:17.539Z,27.07
2018-02-11T20:05:45.163Z,28.30
2018-02-11T20:08:12.842Z,26.00
2018-02-11T20:10:40.365Z,24.73
2018-02-11T20:13:07.878Z,23.83
2018-02-11T20:15:35.479Z,25.03
2018-02-11T20:18:03.076Z,24.00
2018-02-11T20:20:30.590Z,24.87
2018-02-11T20:22:58.292Z,25.90
2018-02-11T20:25:25.866Z,24.10
2018-02-11T20:27:53.363Z,25.87
2018-02-11T20:30:20.827Z,25.73
2018-02-11T20:32:48.380Z,25.23
2018-02-11T20:35:15.895Z,26.20
2018-02-11T20:37:43.405Z,25.90
2018-02-11T20:40:10.936Z,26.67
2018-02-11T20:42:38.455Z,24.80
2018-02-11T20:45:06.082Z,26.40
2018-02-11T20:47:33.564Z,26.30
2018-02-11T20:50:01.048Z,26.30
2018-02-11T20:52:28.538Z,25.67
2018-02-11T20:54:56.039Z,25.57
2018-02-11T20:57:23.546Z,25.20
2018-02-11T20:59:51.044Z,25.77
2018-02-11T21:02:18.613Z,25.27
2018-02-11T21:04:46.081Z,26.00
2018-02-11T21:07:13.571Z,26.30
2018-02-11T21:09:41.048Z,25.47
2018-02-11T21:12:08.512Z,25.97
2018-02-11T21:14:36.007Z,27.30
2018-02-11T21:17:03.477Z,27.20
2018-02-11T21:19:30.949Z,26.13
2018-02-11T21:21:58.468Z,28.27
2018-02-11T21:24:26.801Z,25.40
2018-02-11T21:26:54.268Z,28.40
2018-02-11T21:29:21.752Z,28.10
2018-02-11T21:31:49.228Z,25.70
2018-02-11T21:34:16.715Z,26.07
2018-02-11T21:36:44.161Z,25.00
2018-02-11T21:39:11.615Z,25.37
2018-02-11T21:41:39.087Z,26.50
2018-02-11T21:44:06.541Z,28.50
2018-02-11T21:46:34.004Z,28.93
2018-02-11T21:49:01.513Z,27.37
2018-02-11T21:51:28.962Z,25.37
2018-02-11T21:53:56.457Z,26.73
2018-02-11T21:56:23.933Z,28.10
2018-02-11T21:58:51.430Z,28.73
2018-02-11T22:01:19.000Z,28.77
2018-02-11T22:03:46.458Z,28.27
2018-02-11T22:06:13.928Z,28.27
2018-02-11T22:08:41.412Z,26.60
2018-02-11T22:11:08.873Z,25.90
2018-02-11T22:13:36.344Z,27.37
2018-02-11T22:16:03.875Z,27.20
2018-02-11T22:18:31.347Z,27.57
2018-02-11T22:20:58.863Z,27.67
2018-02-11T22:23:26.401Z,27.07
2018-02-11T22:25:53.884Z,29.33
2018-02-11T22:28:21.375Z,28.13
2018-02-11T22:30:48.853Z,26.67
2018-02-11T22:33:17.002Z,25.90
2018-02-11T22:35:44.511Z,27.47
2018-02-11T22:38:12.020Z,27.63
2018-02-11T22:40:39.948Z,24.17
2018-02-11T22:43:07.477Z,27.00
2018-02-11T22:45:34.953Z,26.53
2018-02-11T22:48:02.444Z,26.40
2018-02-11T22:50:29.882Z,24.43
2018-02-11T22:52:57.342Z,24.33
2018-02-11T22:55:24.898Z,24.30
2018-02-11T22:57:52.361Z,25.43
2018-02-11T23:00:19.844Z,24.43
2018-02-11T23:02:47.395Z,25.47
2018-02-11T23:05:14.908Z,22.97
2018-02-11T23:07:42.364Z,23.80
2018-02-11T23:10:09.839Z,23.17
2018-02-11T23:12:38.821Z,23.07
2018-02-11T23:15:06.294Z,22.63
2018-02-11T23:17:33.774Z,23.57
2018-02-11T23:20:01.238Z,22.87
2018-02-11T23:22:28.690Z,22.13
2018-02-11T23:24:56.155Z,22.80
2018-02-11T23:27:23.641Z,22.03
2018-02-11T23:29:51.103Z,20.07
2018-02-11T23:32:18.599Z,22.50
2018-02-11T23:34:47.538Z,21.33
2018-02-11T23:37:15.062Z,20.33
2018-02-11T23:39:43.536Z,21.23
2018-02-11T23:42:11.187Z,19.73
2018-02-11T23:44:38.752Z,20.67
2018-02-11T23:47:06.248Z,20.67
2018-02-11T23:49:33.767Z,20.33
2018-02-11T23:52:01.234Z,21.60
2018-02-11T23:54:28.708Z,21.03
2018-02-11T23:56:56.194Z,21.40
2018-02-11T23:59:23.684Z,20.43
